createdAt,value
2023-09-11T00:02:22.180Z,100.00
2023-09-11T00:07:26.047Z,100.00
2023-09-11T00:12:29.593Z,100.00
2023-09-11T00:17:35.385Z,100.00
2023-09-11T00:22:39.046Z,100.00
2023-09-11T00:27:42.202Z,100.00
2023-09-11T00:32:46.804Z,100.00
2023-09-11T00:37:50.058Z,100.00
2023-09-11T00:42:53.267Z,100.00
2023-09-11T00:47:57.962Z,100.00
2023-09-11T00:53:01.770Z,100.00
2023-09-11T00:58:05.334Z,100.00
2023-09-11T01:03:10.110Z,100.00
2023-09-11T01:08:13.789Z,100.00
2023-09-11T01:13:17.667Z,100.00
2023-09-11T01:18:29.540Z,100.00
2023-09-11T01:23:52.911Z,100.00
2023-09-11T01:29:16.247Z,100.00
2023-09-11T01:34:19.479Z,100.00
2023-09-11T01:39:22.694Z,100.00
2023-09-11T01:44:40.026Z,100.00
2023-09-11T01:49:45.229Z,100.00
2023-09-11T01:54:50.099Z,100.00
2023-09-11T01:59:54.700Z,100.00
2023-09-11T02:04:58.278Z,100.00
2023-09-11T02:10:02.014Z,100.00
2023-09-11T02:15:08.255Z,100.00
2023-09-11T02:20:11.999Z,100.00
2023-09-11T02:25:15.353Z,100.00
2023-09-11T02:30:19.895Z,100.00
2023-09-11T02:35:23.204Z,100.00
2023-09-11T02:40:26.788Z,100.00
2023-09-11T02:45:31.296Z,100.00
2023-09-11T02:50:34.764Z,100.00
2023-09-11T02:55:38.845Z,100.00
2023-09-11T03:00:43.762Z,100.00
2023-09-11T03:05:47.029Z,100.00
2023-09-11T03:10:50.231Z,100.00
2023-09-11T03:15:54.825Z,100.00
2023-09-11T03:20:58.091Z,100.00
2023-09-11T03:26:01.725Z,100.00
2023-09-11T03:31:06.177Z,100.00
2023-09-11T03:36:09.578Z,100.00
2023-09-11T03:41:12.800Z,100.00
2023-09-11T03:46:17.779Z,100.00
2023-09-11T03:51:21.017Z,100.00
2023-09-11T03:56:24.322Z,100.00
2023-09-11T04:01:29.423Z,100.00
2023-09-11T04:06:32.659Z,100.00
2023-09-11T04:11:36.191Z,100.00
2023-09-11T04:16:40.841Z,100.00
2023-09-11T04:21:44.004Z,100.00
2023-09-11T04:26:47.184Z,100.00
2023-09-11T04:31:51.757Z,100.00
2023-09-11T04:36:54.927Z,100.00
2023-09-11T04:41:58.209Z,100.00
2023-09-11T04:47:03.145Z,100.00
2023-09-11T04:52:06.523Z,100.00
2023-09-11T04:57:09.672Z,100.00
2023-09-11T05:02:14.145Z,100.00
2023-09-11T05:07:17.288Z,100.00
2023-09-11T05:12:20.563Z,100.00
2023-09-11T05:17:25.200Z,100.00
2023-09-11T05:22:28.395Z,100.00
2023-09-11T05:27:31.558Z,100.00
2023-09-11T05:32:36.047Z,100.00
2023-09-11T05:37:39.725Z,100.00
2023-09-11T05:42:43.897Z,100.00
2023-09-11T05:47:48.635Z,100.00
2023-09-11T05:52:51.864Z,100.00
2023-09-11T05:57:55.001Z,100.00
2023-09-11T06:02:59.538Z,100.00
2023-09-11T06:08:03.749Z,100.00
2023-09-11T06:13:07.144Z,100.00
2023-09-11T06:18:14.135Z,100.00
2023-09-11T06:23:17.892Z,100.00
2023-09-11T06:28:22.004Z,100.00
2023-09-11T06:33:40.889Z,100.00
2023-09-11T06:38:45.151Z,100.00
2023-09-11T06:43:48.841Z,100.00
2023-09-11T06:48:53.712Z,100.00
2023-09-11T06:53:57.343Z,100.00
2023-09-11T06:59:00.764Z,100.00
2023-09-11T07:04:05.762Z,100.00
2023-09-11T07:09:09.531Z,100.00
2023-09-11T07:14:14.074Z,100.00
2023-09-11T07:19:18.591Z,100.00
2023-09-11T07:24:21.847Z,100.00
2023-09-11T07:29:28.225Z,98.36
2023-09-11T07:34:32.859Z,94.54
2023-09-11T07:39:36.036Z,88.60
2023-09-11T07:44:39.164Z,87.59
2023-09-11T07:49:43.652Z,83.57
2023-09-11T07:54:46.836Z,85.99
2023-09-11T07:59:50.070Z,80.97
2023-09-11T08:04:54.603Z,79.11
2023-09-11T08:10:00.017Z,78.55
2023-09-11T08:15:04.501Z,71.60
2023-09-11T08:20:10.881Z,75.78
2023-09-11T08:25:14.864Z,79.99
2023-09-11T08:30:18.381Z,76.58
2023-09-11T08:35:22.855Z,74.43
2023-09-11T08:40:30.997Z,66.54
2023-09-11T08:45:34.253Z,64.14
2023-09-11T08:50:51.836Z,72.10
2023-09-11T08:55:57.770Z,63.83
2023-09-11T09:01:03.486Z,65.45
2023-09-11T09:06:08.412Z,60.39
2023-09-11T09:11:12.569Z,59.05
2023-09-11T09:16:15.802Z,68.94
2023-09-11T09:21:26.752Z,62.18
2023-09-11T09:26:31.055Z,61.32
2023-09-11T09:31:34.833Z,52.79
2023-09-11T09:36:49.979Z,54.06
2023-09-11T09:41:54.894Z,58.90
2023-09-11T09:46:58.961Z,53.17
2023-09-11T09:52:05.606Z,52.12
2023-09-11T09:57:12.192Z,58.26
2023-09-11T10:02:16.109Z,55.85
2023-09-11T10:07:37.178Z,53.65
2023-09-11T10:12:40.602Z,47.32
2023-09-11T10:17:44.780Z,48.44
2023-09-11T10:22:49.853Z,49.72
2023-09-11T10:27:59.113Z,48.30
2023-09-11T10:33:04.663Z,51.68
2023-09-11T10:38:10.672Z,48.67
2023-09-11T10:43:14.124Z,49.38
2023-09-11T10:48:30.515Z,51.00
2023-09-11T10:53:35.927Z,51.56
2023-09-11T10:58:41.121Z,51.52
2023-09-11T11:03:45.113Z,47.13
2023-09-11T11:08:50.768Z,47.35
2023-09-11T11:14:13.815Z,49.39
2023-09-11T11:19:26.854Z,48.10
2023-09-11T11:24:36.104Z,44.55
2023-09-11T11:29:39.467Z,42.25
2023-09-11T11:34:46.540Z,47.21
2023-09-11T11:39:51.904Z,46.33
2023-09-11T11:44:56.009Z,44.19
2023-09-11T11:49:59.713Z,44.30
2023-09-11T11:55:21.426Z,40.36
2023-09-11T12:00:24.817Z,43.64
2023-09-11T12:05:28.835Z,42.15
2023-09-11T12:10:34.265Z,41.86
2023-09-11T12:15:38.011Z,40.74
2023-09-11T12:20:53.445Z,41.92
2023-09-11T12:25:59.931Z,42.77
2023-09-11T12:31:04.109Z,39.62
2023-09-11T12:36:07.898Z,43.25
2023-09-11T12:41:13.378Z,40.47
2023-09-11T12:46:17.554Z,40.55
2023-09-11T12:51:21.117Z,40.02
2023-09-11T12:56:25.834Z,42.91
2023-09-11T13:01:33.473Z,38.99
2023-09-11T13:06:37.314Z,39.46
2023-09-11T13:11:42.881Z,40.20
2023-09-11T13:16:46.960Z,42.20
2023-09-11T13:21:50.304Z,44.12
2023-09-11T13:26:55.250Z,43.69
2023-09-11T13:31:58.649Z,39.78
2023-09-11T13:37:02.076Z,42.96
2023-09-11T13:42:06.984Z,41.44
2023-09-11T13:47:10.487Z,41.00
2023-09-11T13:52:14.262Z,40.76
2023-09-11T13:57:19.024Z,45.93
2023-09-11T14:02:22.555Z,43.88
2023-09-11T14:07:27.540Z,43.73
2023-09-11T14:12:32.394Z,41.05
2023-09-11T14:17:35.956Z,40.41
2023-09-11T14:22:40.852Z,44.38
2023-09-11T14:27:45.878Z,43.43
2023-09-11T14:32:50.168Z,42.46
2023-09-11T14:37:54.116Z,42.36
2023-09-11T14:42:59.251Z,45.55
2023-09-11T14:48:02.923Z,43.53
2023-09-11T14:53:06.362Z,44.20
2023-09-11T14:58:11.475Z,46.12
2023-09-11T15:03:15.036Z,43.05
2023-09-11T15:08:18.534Z,44.97
2023-09-11T15:13:23.277Z,43.72
2023-09-11T15:18:27.409Z,47.02
2023-09-11T15:23:31.128Z,48.52
2023-09-11T15:28:36.056Z,45.67
2023-09-11T15:33:39.527Z,46.88
2023-09-11T15:38:44.898Z,49.01
2023-09-11T15:43:50.232Z,48.28
2023-09-11T15:48:53.741Z,50.98
2023-09-11T15:53:57.022Z,49.71
2023-09-11T15:59:01.881Z,49.51
2023-09-11T16:04:05.398Z,50.56
2023-09-11T16:09:08.873Z,50.59
2023-09-11T16:14:13.736Z,60.39
2023-09-11T16:19:19.957Z,55.31
2023-09-11T16:24:23.426Z,57.94
2023-09-11T16:29:28.298Z,69.00
2023-09-11T16:34:31.757Z,69.66
2023-09-11T16:39:35.341Z,72.84
2023-09-11T16:44:40.603Z,78.36
2023-09-11T16:49:44.277Z,83.65
2023-09-11T16:54:47.926Z,85.31
2023-09-11T16:59:53.100Z,86.95
2023-09-11T17:04:57.161Z,87.51
2023-09-11T17:10:00.574Z,89.98
2023-09-11T17:15:06.371Z,92.34
2023-09-11T17:20:10.913Z,92.29
2023-09-11T17:25:14.763Z,94.74
2023-09-11T17:30:19.571Z,95.52
2023-09-11T17:35:23.028Z,93.95
2023-09-11T17:40:26.480Z,97.87
2023-09-11T17:45:31.596Z,96.82
2023-09-11T17:50:35.276Z,98.40
2023-09-11T17:55:38.556Z,99.11
2023-09-11T18:00:43.371Z,100.00
2023-09-11T18:05:51.669Z,99.59
2023-09-11T18:10:55.377Z,99.74
2023-09-11T18:16:00.039Z,100.00
2023-09-11T18:21:03.746Z,100.00
2023-09-11T18:26:07.315Z,100.00
2023-09-11T18:31:12.170Z,100.00
2023-09-11T18:36:16.608Z,100.00
2023-09-11T18:41:20.383Z,100.00
2023-09-11T18:46:25.684Z,100.00
2023-09-11T18:51:29.890Z,100.00
2023-09-11T18:56:33.342Z,100.00
2023-09-11T19:01:39.832Z,100.00
2023-09-11T19:06:44.803Z,100.00
2023-09-11T19:11:48.279Z,100.00
2023-09-11T19:16:53.970Z,100.00
2023-09-11T19:21:57.549Z,100.00
2023-09-11T19:27:00.858Z,100.00
2023-09-11T19:32:06.986Z,100.00
2023-09-11T19:37:10.403Z,100.00
2023-09-11T19:42:14.719Z,100.00
2023-09-11T19:47:19.408Z,100.00
2023-09-11T19:52:22.997Z,100.00
2023-09-11T19:57:27.557Z,100.00
2023-09-11T20:02:32.791Z,100.00
2023-09-11T20:07:36.420Z,100.00
2023-09-11T20:12:39.671Z,100.00
2023-09-11T20:17:44.287Z,100.00
2023-09-11T20:22:47.695Z,100.00
2023-09-11T20:27:50.983Z,100.00
2023-09-11T20:32:55.828Z,100.00
2023-09-11T20:37:59.199Z,100.00
2023-09-11T20:43:02.453Z,100.00
2023-09-11T20:48:07.741Z,100.00
2023-09-11T20:53:11.115Z,100.00
2023-09-11T20:58:14.448Z,100.00
2023-09-11T21:03:19.344Z,100.00
2023-09-11T21:08:22.938Z,100.00
2023-09-11T21:13:27.318Z,100.00
2023-09-11T21:18:32.035Z,100.00
2023-09-11T21:23:35.689Z,100.00
2023-09-11T21:28:40.361Z,100.00
2023-09-11T21:33:45.271Z,100.00
2023-09-11T21:38:48.556Z,100.00
2023-09-11T21:43:52.089Z,100.00
2023-09-11T21:48:57.092Z,100.00
2023-09-11T21:54:13.417Z,100.00
2023-09-11T21:59:17.746Z,100.00
2023-09-11T22:04:22.301Z,100.00
2023-09-11T22:09:25.641Z,100.00
2023-09-11T22:14:28.856Z,100.00
2023-09-11T22:19:33.407Z,100.00
2023-09-11T22:24:36.564Z,100.00
2023-09-11T22:29:39.731Z,100.00
2023-09-11T22:34:44.488Z,100.00
2023-09-11T22:39:48.185Z,100.00
2023-09-11T22:44:52.334Z,100.00
2023-09-11T22:49:57.694Z,100.00
2023-09-11T22:55:01.331Z,100.00
2023-09-11T23:00:05.758Z,100.00
2023-09-11T23:05:10.999Z,100.00
2023-09-11T23:10:14.196Z,100.00
2023-09-11T23:15:17.639Z,100.00
2023-09-11T23:20:22.243Z,100.00
2023-09-11T23:25:25.359Z,100.00
2023-09-11T23:30:29.344Z,100.00
2023-09-11T23:35:34.030Z,100.00
2023-09-11T23:40:37.220Z,100.00
2023-09-11T23:45:40.663Z,100.00
2023-09-11T23:50:46.681Z,100.00
2023-09-11T23:55:50.000Z,100.00
